Time;durP1;ratioP1;P1;durP2;ratioP2;P2;SDS_P1;SDS_P2;PMS_P1;PMS_P2;Temp;Humidity;BMP_temperature;BMP_pressure;BME280_temperature;BME280_humidity;BME280_pressure;Samples;Min_cycle;Max_cycle;Signal;HPM_P1;HPM_P2
2022/11/07 00:01:59;;;;;;;7.90;2.25;;;11.00;99.90;;;;;;4972998;28;20066;-81
2022/11/07 00:04:29;;;;;;;7.28;2.10;;;11.00;99.90;;;;;;4957148;28;20066;-80
2022/11/07 00:06:55;;;;;;;7.78;2.55;;;11.10;99.90;;;;;;4973314;28;20031;-80
2022/11/07 00:09:21;;;;;;;8.40;2.33;;;11.00;99.90;;;;;;4925157;28;20090;-80
2022/11/07 00:11:46;;;;;;;8.13;3.17;;;11.00;99.90;;;;;;4957124;28;20419;-81
2022/11/07 00:14:13;;;;;;;10.10;2.60;;;11.00;99.90;;;;;;4925321;28;20038;-80
2022/11/07 00:16:39;;;;;;;8.02;2.55;;;11.00;99.90;;;;;;4973070;28;20117;-80
2022/11/07 00:19:05;;;;;;;9.33;2.50;;;11.00;99.90;;;;;;4940579;28;20078;-80
2022/11/07 00:21:30;;;;;;;6.30;2.38;;;11.00;99.90;;;;;;4941104;28;20042;-80
2022/11/07 00:23:56;;;;;;;9.13;2.67;;;11.00;99.90;;;;;;4941221;28;20376;-80
2022/11/07 00:26:22;;;;;;;10.43;2.60;;;10.90;99.90;;;;;;4940688;28;20475;-79
2022/11/07 00:28:48;;;;;;;10.32;2.45;;;10.90;99.90;;;;;;4974723;28;20106;-81
2022/11/07 00:31:15;;;;;;;5.17;2.27;;;11.00;99.90;;;;;;4957348;28;20081;-80
2022/11/07 00:33:41;;;;;;;7.15;2.28;;;11.00;99.90;;;;;;4972206;28;20058;-81
2022/11/07 00:36:08;;;;;;;7.18;2.08;;;11.10;99.90;;;;;;4974454;28;20027;-82
2022/11/07 00:38:34;;;;;;;14.10;2.97;;;11.10;99.90;;;;;;4960210;28;20027;-81
2022/11/07 00:41:02;;;;;;;8.27;2.45;;;11.10;99.90;;;;;;4944127;28;20371;-81
2022/11/07 00:43:28;;;;;;;8.75;2.47;;;11.20;99.90;;;;;;4959274;28;20031;-81
2022/11/07 00:45:55;;;;;;;9.25;2.83;;;11.20;99.90;;;;;;4960170;28;20027;-81
2022/11/07 00:48:21;;;;;;;7.15;2.13;;;11.20;99.90;;;;;;4976344;28;20049;-81
2022/11/07 00:50:47;;;;;;;12.82;2.35;;;11.20;99.90;;;;;;4976396;28;20411;-81
2022/11/07 00:53:12;;;;;;;6.77;2.43;;;11.30;99.90;;;;;;4960388;28;20026;-81
2022/11/07 00:55:38;;;;;;;7.55;2.30;;;11.20;99.90;;;;;;4944097;28;20467;-81
2022/11/07 00:58:04;;;;;;;7.88;2.63;;;11.20;99.90;;;;;;4960385;28;20035;-81
2022/11/07 01:00:30;;;;;;;8.75;2.55;;;11.20;99.90;;;;;;4960289;28;20030;-81
2022/11/07 01:05:40;;;;;;;14.18;3.08;;;11.20;99.90;;;;;;4977751;28;20042;-81
2022/11/07 01:08:06;;;;;;;8.90;2.38;;;11.20;99.90;;;;;;4975743;28;20035;-80
2022/11/07 01:10:31;;;;;;;14.63;2.60;;;11.20;99.90;;;;;;4959777;28;20472;-81
2022/11/07 01:12:57;;;;;;;8.55;2.85;;;11.20;99.90;;;;;;4976567;28;20031;-80
2022/11/07 01:15:23;;;;;;;6.13;1.92;;;11.30;99.90;;;;;;4959818;28;20081;-80
2022/11/07 01:17:48;;;;;;;8.52;2.42;;;11.20;99.90;;;;;;4978409;28;20046;-80
2022/11/07 01:20:14;;;;;;;12.97;2.07;;;11.20;99.90;;;;;;4959897;28;20026;-80
2022/11/07 01:22:40;;;;;;;6.63;2.25;;;11.20;99.90;;;;;;4975914;28;20462;-81
2022/11/07 01:25:06;;;;;;;9.50;2.30;;;11.20;99.90;;;;;;4975793;28;20442;-79
2022/11/07 01:27:31;;;;;;;8.52;2.25;;;11.20;99.90;;;;;;4959274;28;20089;-80
2022/11/07 01:29:57;;;;;;;11.63;2.05;;;11.30;99.90;;;;;;4975573;28;20031;-80
2022/11/07 01:32:23;;;;;;;12.23;2.10;;;11.30;99.90;;;;;;4959457;28;20026;-81
2022/11/07 01:34:48;;;;;;;10.00;1.60;;;11.30;99.90;;;;;;4959164;28;20126;-80
2022/11/07 01:37:14;;;;;;;9.07;1.92;;;11.30;99.90;;;;;;4943437;28;20034;-80
2022/11/07 01:39:40;;;;;;;13.27;2.25;;;11.30;99.90;;;;;;4958880;28;20031;-81
2022/11/07 01:42:05;;;;;;;8.60;1.92;;;11.40;99.90;;;;;;4975500;28;20037;-80
2022/11/07 01:44:31;;;;;;;7.75;2.25;;;11.40;99.90;;;;;;4976795;28;20031;-80
2022/11/07 01:46:58;;;;;;;6.72;1.80;;;11.40;99.90;;;;;;4973894;28;20062;-80
2022/11/07 01:49:27;;;;;;;10.52;2.05;;;11.40;99.90;;;;;;4955852;28;20058;-81
2022/11/07 01:52:01;;;;;;;7.75;1.85;;;11.30;99.90;;;;;;4971701;28;20054;-81
2022/11/07 01:54:29;;;;;;;;;;;11.30;99.90;;;;;;4956050;29;20170;-81
2022/11/07 01:56:58;;;;;;;10.50;2.45;;;11.30;99.90;;;;;;4972340;28;19907;-80
2022/11/07 01:59:27;;;;;;;10.27;1.80;;;11.30;99.90;;;;;;4956875;28;20031;-80
2022/11/07 02:01:54;;;;;;;9.13;2.40;;;11.20;99.90;;;;;;4956924;28;20475;-80
2022/11/07 02:04:23;;;;;;;6.45;2.17;;;11.20;99.90;;;;;;4971495;28;20059;-81
2022/11/07 02:06:54;;;;;;;13.47;3.00;;;11.20;99.90;;;;;;4971439;28;20023;-81
2022/11/07 02:09:20;;;;;;;9.50;2.10;;;11.20;99.90;;;;;;4955548;29;20035;-80
2022/11/07 02:11:46;;;;;;;9.13;2.27;;;11.20;99.90;;;;;;4971801;28;20027;-80
2022/11/07 02:14:14;;;;;;;10.50;2.67;;;11.10;99.90;;;;;;4971386;28;20460;-80
2022/11/07 02:16:40;;;;;;;10.55;2.67;;;11.10;99.90;;;;;;4956834;28;20069;-80
2022/11/07 02:19:17;;;;;;;10.18;2.15;;;11.10;99.90;;;;;;4955568;29;20095;-80
2022/11/07 02:21:52;;;;;;;10.70;2.17;;;11.10;99.90;;;;;;4956857;28;20086;-81
2022/11/07 02:24:36;;;;;;;14.55;3.13;;;11.10;99.90;;;;;;4956744;28;20094;-81
2022/11/07 02:27:07;;;;;;;6.72;2.10;;;11.20;99.90;;;;;;4955124;29;20547;-81
2022/11/07 02:29:35;;;;;;;11.93;2.33;;;11.10;99.90;;;;;;4954945;29;20043;-81
2022/11/07 02:32:03;;;;;;;7.20;2.05;;;11.00;99.90;;;;;;4955226;29;20361;-81
2022/11/07 02:34:29;;;;;;;12.30;3.42;;;11.00;99.90;;;;;;4954965;29;20495;-80
2022/11/07 02:36:56;;;;;;;10.52;2.75;;;11.00;99.90;;;;;;4955027;29;20035;-80
2022/11/07 02:39:22;;;;;;;5.43;1.90;;;11.00;99.90;;;;;;4970826;28;20082;-80
2022/11/07 02:41:49;;;;;;;11.95;2.03;;;11.00;99.90;;;;;;4970891;28;20031;-80
2022/11/07 02:44:15;;;;;;;10.10;2.53;;;11.00;99.90;;;;;;4955921;28;20027;-80
2022/11/07 02:46:41;;;;;;;12.03;2.73;;;11.00;99.90;;;;;;4955063;29;20085;-80
2022/11/07 02:49:07;;;;;;;14.37;2.60;;;11.00;99.90;;;;;;4971609;28;20051;-80
2022/11/07 02:51:32;;;;;;;12.50;2.87;;;11.00;99.90;;;;;;4958127;28;20031;-80
2022/11/07 02:53:58;;;;;;;8.43;2.58;;;11.00;99.90;;;;;;4974166;28;20086;-80
2022/11/07 02:56:24;;;;;;;7.90;1.90;;;11.00;99.90;;;;;;4957934;28;20422;-80
2022/11/07 02:58:51;;;;;;;8.85;2.53;;;10.90;99.90;;;;;;4973467;28;20101;-80
2022/11/07 03:01:18;;;;;;;13.77;3.20;;;10.90;99.90;;;;;;4957999;28;20361;-80
2022/11/07 03:03:46;;;;;;;11.75;2.80;;;11.00;99.90;;;;;;4974707;28;20032;-79
2022/11/07 03:06:15;;;;;;;9.07;2.00;;;11.00;99.90;;;;;;4973701;28;20031;-80
2022/11/07 03:08:41;;;;;;;8.30;2.58;;;10.90;99.90;;;;;;4974931;28;20125;-79
2022/11/07 03:11:08;;;;;;;11.20;2.50;;;11.00;99.90;;;;;;4957908;28;20034;-80
2022/11/07 03:13:34;;;;;;;9.45;2.30;;;10.90;99.90;;;;;;4957116;28;20055;-80
2022/11/07 03:16:04;;;;;;;11.95;3.50;;;10.90;99.90;;;;;;4957593;28;20120;-80
2022/11/07 03:18:30;;;;;;;10.57;2.25;;;11.00;99.90;;;;;;4957258;28;20035;-80
2022/11/07 03:20:55;;;;;;;14.27;2.15;;;11.00;99.90;;;;;;4973604;28;20037;-80
2022/11/07 03:23:21;;;;;;;9.65;2.58;;;11.00;99.90;;;;;;4957427;28;20430;-80
2022/11/07 03:25:46;;;;;;;9.05;2.65;;;11.00;99.90;;;;;;4957531;28;20023;-80
2022/11/07 03:28:12;;;;;;;12.77;2.50;;;11.00;99.90;;;;;;4956941;28;20038;-80
2022/11/07 03:30:38;;;;;;;7.97;2.55;;;11.00;99.90;;;;;;4973738;28;20031;-79
2022/11/07 03:33:03;;;;;;;8.70;2.10;;;11.00;99.90;;;;;;4940965;28;20023;-80
2022/11/07 03:35:29;;;;;;;12.00;2.30;;;11.00;99.90;;;;;;4957042;28;20399;-80
2022/11/07 03:37:55;;;;;;;14.85;2.35;;;11.00;99.90;;;;;;4956949;28;20031;-80
2022/11/07 03:40:21;;;;;;;9.82;2.70;;;11.00;99.90;;;;;;4957072;28;20039;-80
2022/11/07 03:42:46;;;;;;;8.27;2.63;;;11.10;99.90;;;;;;4941073;28;20505;-79
2022/11/07 03:45:14;;;;;;;13.32;2.63;;;11.10;99.90;;;;;;4973413;28;20126;-80
2022/11/07 03:47:41;;;;;;;14.93;2.50;;;11.10;99.90;;;;;;4956883;28;20102;-80
2022/11/07 03:50:09;;;;;;;11.75;2.25;;;11.10;99.90;;;;;;4972967;28;20051;-80
2022/11/07 03:52:35;;;;;;;11.40;2.33;;;11.10;99.90;;;;;;4974810;28;20031;-80
2022/11/07 03:55:00;;;;;;;18.27;3.20;;;11.20;99.90;;;;;;4975284;28;20038;-80
2022/11/07 03:57:26;;;;;;;8.45;2.53;;;11.20;99.90;;;;;;4958028;28;20035;-80
2022/11/07 03:59:52;;;;;;;9.70;2.00;;;11.20;99.90;;;;;;4975500;28;20038;-80
2022/11/07 04:02:18;;;;;;;13.25;2.47;;;11.30;99.90;;;;;;4977104;28;20543;-80
2022/11/07 04:04:43;;;;;;;12.23;1.85;;;11.30;99.90;;;;;;4976676;28;20031;-80
2022/11/07 04:07:09;;;;;;;12.70;2.70;;;11.30;99.90;;;;;;4959507;28;20033;-80
2022/11/07 04:09:34;;;;;;;11.80;2.72;;;11.40;99.90;;;;;;4960069;28;20121;-80
2022/11/07 04:17:29;;;;;;;11.25;2.00;;;11.40;99.90;;;;;;4964138;28;20045;-80
2022/11/07 04:19:56;;;;;;;16.08;2.63;;;11.40;99.90;;;;;;4978322;28;20034;-81
2022/11/07 04:22:23;;;;;;;15.52;2.78;;;11.40;99.90;;;;;;4960475;28;20122;-80
2022/11/07 04:24:48;;;;;;;14.07;2.40;;;11.40;99.90;;;;;;4960663;28;20030;-80
2022/11/07 04:30:17;;;;;;;10.70;2.53;;;11.40;99.90;;;;;;4977019;28;20149;-81
2022/11/07 04:33:03;;;;;;;10.13;2.17;;;11.40;99.90;;;;;;4960259;28;20034;-80
2022/11/07 04:35:31;;;;;;;13.10;2.30;;;11.40;99.90;;;;;;4960024;28;20464;-80
2022/11/07 04:37:58;;;;;;;9.18;1.83;;;11.40;99.90;;;;;;4977837;28;20031;-80
2022/11/07 04:40:24;;;;;;;7.78;2.28;;;11.50;99.90;;;;;;4960470;28;20085;-81
2022/11/07 04:42:50;;;;;;;8.48;1.98;;;11.50;99.90;;;;;;4977570;28;20031;-79
2022/11/07 04:45:16;;;;;;;7.05;1.80;;;11.50;99.90;;;;;;4960482;28;20467;-80
2022/11/07 04:47:42;;;;;;;13.05;2.20;;;11.50;99.90;;;;;;4976428;28;20058;-80
2022/11/07 04:50:10;;;;;;;13.82;2.75;;;11.50;99.90;;;;;;4959878;28;20407;-80
2022/11/07 04:52:36;;;;;;;14.88;2.42;;;11.60;99.90;;;;;;4960104;28;20025;-80
2022/11/07 04:55:03;;;;;;;9.00;1.70;;;11.60;99.90;;;;;;4976709;28;20031;-81
2022/11/07 04:57:28;;;;;;;14.00;1.98;;;11.60;99.90;;;;;;4960177;28;20022;-81
2022/11/07 04:59:54;;;;;;;11.35;2.22;;;11.70;99.90;;;;;;4976032;28;20031;-81
2022/11/07 05:02:23;;;;;;;11.82;1.75;;;11.70;99.90;;;;;;4960110;28;20034;-80
2022/11/07 05:04:50;;;;;;;14.48;2.47;;;11.70;99.90;;;;;;4959400;28;20117;-80
2022/11/07 05:07:17;;;;;;;20.67;2.70;;;11.70;99.90;;;;;;4944148;28;20023;-81
2022/11/07 05:09:42;;;;;;;13.95;2.42;;;11.70;99.90;;;;;;4975713;28;20035;-81
2022/11/07 05:12:08;;;;;;;12.40;3.03;;;11.70;99.90;;;;;;4975951;28;20183;-81
2022/11/07 05:14:34;;;;;;;13.27;2.00;;;11.80;99.90;;;;;;4976002;28;20059;-80
2022/11/07 05:17:02;;;;;;;10.05;1.98;;;11.80;99.90;;;;;;4959836;28;20081;-81
2022/11/07 05:19:27;;;;;;;12.60;2.63;;;11.80;99.90;;;;;;4975962;28;20026;-80
2022/11/07 05:24:37;;;;;;;5.43;1.38;;;11.80;99.90;;;;;;4976240;28;20041;-81
2022/11/07 05:27:04;;;;;;;10.73;1.88;;;11.80;99.90;;;;;;4976749;28;20031;-81
2022/11/07 05:29:30;;;;;;;13.43;3.15;;;11.80;99.90;;;;;;4959099;28;20042;-80
2022/11/07 05:31:55;;;;;;;14.18;2.05;;;11.80;99.90;;;;;;4975952;28;20027;-80
2022/11/07 05:34:21;;;;;;;21.13;2.50;;;11.80;99.90;;;;;;4975265;28;20455;-80
2022/11/07 05:36:47;;;;;;;13.68;1.80;;;11.80;99.90;;;;;;4975639;28;20062;-80
2022/11/07 05:39:12;;;;;;;15.32;2.10;;;11.80;99.90;;;;;;4976437;28;20118;-80
2022/11/07 05:41:38;;;;;;;13.75;1.80;;;11.80;99.90;;;;;;4959552;28;20145;-80
2022/11/07 05:44:04;;;;;;;19.83;2.85;;;11.90;99.90;;;;;;4975613;28;20031;-80
2022/11/07 05:46:29;;;;;;;7.80;1.77;;;11.80;99.90;;;;;;4958887;28;20023;-80
2022/11/07 05:48:55;;;;;;;14.43;2.10;;;11.80;99.90;;;;;;4943077;28;20039;-80
2022/11/07 05:51:21;;;;;;;14.75;2.05;;;11.90;99.90;;;;;;4959003;28;20062;-81
2022/11/07 05:53:46;;;;;;;17.13;2.55;;;11.90;99.90;;;;;;4959198;28;20490;-80
2022/11/07 05:56:12;;;;;;;17.50;2.30;;;11.90;99.90;;;;;;4958935;28;20462;-81
2022/11/07 05:58:37;;;;;;;15.05;2.42;;;11.90;99.90;;;;;;4942760;28;20027;-80
2022/11/07 06:01:05;;;;;;;13.15;2.30;;;11.80;99.90;;;;;;4958945;28;20030;-80
2022/11/07 06:03:31;;;;;;;16.33;1.85;;;11.80;99.90;;;;;;4958761;28;20126;-80
2022/11/07 06:05:57;;;;;;;9.95;1.65;;;11.80;99.90;;;;;;4958951;28;20478;-80
2022/11/07 06:08:23;;;;;;;12.73;2.38;;;11.80;99.90;;;;;;4976314;28;20387;-80
2022/11/07 06:10:49;;;;;;;19.42;2.97;;;11.80;99.90;;;;;;4971455;28;20034;-80
2022/11/07 06:13:15;;;;;;;11.75;2.58;;;11.80;99.90;;;;;;4994453;28;20484;-80
2022/11/07 06:15:43;;;;;;;13.70;1.92;;;11.80;99.90;;;;;;4995311;28;20406;-80
2022/11/07 06:18:16;;;;;;;17.23;2.72;;;11.80;99.90;;;;;;4986620;28;20058;-81
2022/11/07 06:20:42;;;;;;;16.97;3.10;;;11.80;99.90;;;;;;4964622;28;20074;-80
2022/11/07 06:23:08;;;;;;;11.30;1.70;;;11.80;99.90;;;;;;4950854;28;20073;-80
2022/11/07 06:25:34;;;;;;;18.15;2.53;;;11.80;99.90;;;;;;4948454;28;20027;-80
2022/11/07 06:28:02;;;;;;;13.13;2.03;;;11.80;99.90;;;;;;4961204;28;20294;-80
2022/11/07 06:30:28;;;;;;;11.02;2.50;;;11.80;99.90;;;;;;4970288;28;20029;-81
2022/11/07 06:32:54;;;;;;;13.00;2.28;;;11.80;99.90;;;;;;4959330;28;20113;-80
2022/11/07 06:35:20;;;;;;;10.60;1.75;;;11.80;99.90;;;;;;4957056;28;20169;-80
2022/11/07 06:37:45;;;;;;;13.20;2.30;;;11.90;99.90;;;;;;4975861;28;20030;-80
2022/11/07 06:40:11;;;;;;;17.58;2.83;;;11.80;99.90;;;;;;4941458;28;20026;-80
2022/11/07 06:42:37;;;;;;;15.43;2.20;;;11.90;99.90;;;;;;4958595;28;20042;-81
2022/11/07 06:45:03;;;;;;;18.10;2.92;;;11.80;99.90;;;;;;4972741;28;20040;-80
2022/11/07 06:47:29;;;;;;;12.40;2.45;;;11.90;99.90;;;;;;4984762;28;20026;-80
2022/11/07 06:49:55;;;;;;;11.15;1.80;;;11.90;99.90;;;;;;4958120;28;20051;-80
2022/11/07 06:52:20;;;;;;;19.85;2.55;;;11.90;99.90;;;;;;4981324;28;20050;-80
2022/11/07 06:54:46;;;;;;;16.52;2.05;;;11.90;99.90;;;;;;4938423;28;20062;-81
2022/11/07 06:57:11;;;;;;;17.98;2.10;;;11.90;99.90;;;;;;4972999;28;20434;-82
2022/11/07 06:59:37;;;;;;;13.90;2.15;;;12.00;99.90;;;;;;4972770;28;20042;-80
2022/11/07 07:02:03;;;;;;;10.77;1.73;;;11.90;99.90;;;;;;4956939;28;20027;-80
2022/11/07 07:04:28;;;;;;;15.52;2.25;;;12.00;99.90;;;;;;4955733;28;20035;-80
2022/11/07 07:06:54;;;;;;;8.27;1.92;;;11.90;99.90;;;;;;4974718;28;20118;-81
2022/11/07 07:09:19;;;;;;;18.33;2.85;;;12.00;99.90;;;;;;4957490;28;20043;-81
2022/11/07 07:11:45;;;;;;;18.42;2.67;;;12.00;99.90;;;;;;4974896;28;20037;-81
2022/11/07 07:14:11;;;;;;;11.85;1.90;;;12.00;99.90;;;;;;4957605;28;20034;-81
2022/11/07 07:16:37;;;;;;;18.42;2.10;;;12.00;99.90;;;;;;4958944;28;20418;-81
2022/11/07 07:19:03;;;;;;;13.07;1.85;;;12.00;99.90;;;;;;4975546;28;20062;-81
2022/11/07 07:21:29;;;;;;;14.65;1.88;;;12.10;99.90;;;;;;4973476;28;20031;-81
2022/11/07 07:23:55;;;;;;;13.00;2.28;;;12.10;99.90;;;;;;4974217;28;20034;-82
2022/11/07 07:26:21;;;;;;;11.13;2.28;;;12.10;99.90;;;;;;4957706;28;20126;-80
2022/11/07 07:28:47;;;;;;;10.02;1.25;;;12.10;99.90;;;;;;4974575;28;20039;-81
2022/11/07 07:31:13;;;;;;;15.55;2.55;;;12.20;99.90;;;;;;4970685;28;20027;-81
2022/11/07 07:33:45;;;;;;;12.98;1.67;;;12.20;99.90;;;;;;4964762;28;20035;-80
2022/11/07 07:36:11;;;;;;;12.45;1.80;;;12.20;99.90;;;;;;4959632;28;20086;-80
2022/11/07 07:38:38;;;;;;;20.50;2.30;;;12.20;99.90;;;;;;4954151;29;20039;-80
2022/11/07 07:41:04;;;;;;;12.75;1.85;;;12.30;99.90;;;;;;4962997;28;20023;-80
2022/11/07 07:43:30;;;;;;;14.90;2.15;;;12.30;99.90;;;;;;4961100;28;20480;-81
2022/11/07 07:46:00;;;;;;;18.63;2.92;;;12.30;99.90;;;;;;4954405;29;20036;-81
2022/11/07 07:48:27;;;;;;;9.90;1.58;;;12.30;99.90;;;;;;4954735;29;20356;-83
2022/11/07 07:50:53;;;;;;;14.05;3.10;;;12.40;99.90;;;;;;4964062;28;20057;-86
2022/11/07 07:53:19;;;;;;;15.63;1.88;;;12.40;99.90;;;;;;4977911;28;20026;-84
2022/11/07 07:55:45;;;;;;;6.90;1.80;;;12.50;99.90;;;;;;4989160;28;20018;-85
2022/11/07 07:58:11;;;;;;;11.80;1.90;;;12.50;99.90;;;;;;4979760;28;20022;-87
2022/11/07 08:00:37;;;;;;;14.05;2.25;;;12.50;99.90;;;;;;4962600;28;20066;-88
2022/11/07 08:03:07;;;;;;;11.50;2.42;;;12.60;99.90;;;;;;4960584;28;20034;-88
2022/11/07 08:05:32;;;;;;;16.50;2.40;;;12.60;99.90;;;;;;4976997;28;20491;-84
2022/11/07 08:08:00;;;;;;;19.45;2.88;;;12.70;99.90;;;;;;4976636;28;20042;-87
2022/11/07 08:10:26;;;;;;;13.93;2.33;;;12.70;99.90;;;;;;4977024;28;20028;-86
2022/11/07 08:12:52;;;;;;;11.93;2.05;;;12.70;99.90;;;;;;4968767;28;20122;-86
2022/11/07 08:15:19;;;;;;;11.52;1.92;;;12.80;99.90;;;;;;4964735;28;20497;-84
2022/11/07 08:17:45;;;;;;;12.88;1.63;;;12.80;99.90;;;;;;4951153;28;20031;-88
2022/11/07 08:20:14;;;;;;;13.68;2.30;;;12.80;99.90;;;;;;4957429;28;20121;-85
2022/11/07 08:22:39;;;;;;;12.52;2.45;;;12.90;99.90;;;;;;4982316;28;20031;-84
2022/11/07 08:25:07;;;;;;;10.23;1.67;;;12.90;99.90;;;;;;4941226;28;20030;-86
2022/11/07 08:27:33;;;;;;;13.95;2.40;;;12.90;99.90;;;;;;4956991;28;20543;-88
2022/11/07 08:29:59;;;;;;;13.82;2.13;;;12.90;99.90;;;;;;4956836;28;20134;-83
2022/11/07 08:32:28;;;;;;;6.95;1.52;;;13.00;99.90;;;;;;4959790;28;20070;-83
2022/11/07 08:34:53;;;;;;;12.40;1.73;;;13.00;99.90;;;;;;4987469;28;20073;-86
2022/11/07 08:37:19;;;;;;;12.30;2.25;;;13.00;99.90;;;;;;4976668;28;20430;-83
2022/11/07 08:39:44;;;;;;;10.73;1.90;;;13.10;99.90;;;;;;4947900;28;20058;-82
2022/11/07 08:42:10;;;;;;;15.65;1.92;;;13.10;99.90;;;;;;4956703;28;20066;-83
2022/11/07 08:44:36;;;;;;;16.98;2.55;;;13.20;99.90;;;;;;4956893;28;20033;-81
2022/11/07 08:47:05;;;;;;;10.13;1.35;;;13.20;99.90;;;;;;4968553;28;20085;-85
2022/11/07 08:49:31;;;;;;;14.13;2.05;;;13.20;99.90;;;;;;4964680;28;20047;-86
2022/11/07 08:51:57;;;;;;;13.27;1.95;;;13.20;99.90;;;;;;4940936;28;20510;-85
2022/11/07 08:54:24;;;;;;;13.45;1.52;;;13.40;99.90;;;;;;4957416;28;20031;-85
2022/11/07 08:56:50;;;;;;;14.70;1.95;;;13.40;99.90;;;;;;4959867;28;20030;-85
2022/11/07 08:59:17;;;;;;;16.05;1.92;;;13.40;99.90;;;;;;4960805;28;20117;-85
2022/11/07 09:01:42;;;;;;;10.32;1.50;;;13.50;99.90;;;;;;4944593;28;20030;-85
2022/11/07 09:04:08;;;;;;;8.25;1.95;;;13.50;99.90;;;;;;4944983;28;20379;-85
2022/11/07 09:06:33;;;;;;;8.63;1.50;;;13.60;99.90;;;;;;4944169;28;20387;-88
2022/11/07 09:09:00;;;;;;;12.38;2.03;;;13.60;99.90;;;;;;4944910;28;20043;-86
2022/11/07 09:11:26;;;;;;;8.55;1.60;;;13.60;99.90;;;;;;4978088;28;20033;-87
2022/11/07 09:13:53;;;;;;;16.23;1.88;;;13.70;99.90;;;;;;4961463;28;20086;-85
2022/11/07 09:16:19;;;;;;;13.05;1.67;;;13.70;99.90;;;;;;4961096;28;20030;-82
2022/11/07 09:18:46;;;;;;;10.35;2.28;;;13.70;99.90;;;;;;4961313;28;20097;-82
2022/11/07 09:21:12;;;;;;;12.52;2.20;;;13.70;99.90;;;;;;4987882;28;20061;-82
2022/11/07 09:23:38;;;;;;;18.55;1.48;;;13.70;99.90;;;;;;4988079;28;20074;-83
2022/11/07 09:26:04;;;;;;;11.00;1.73;;;13.70;99.90;;;;;;4969488;28;20026;-82
2022/11/07 09:28:30;;;;;;;9.90;1.10;;;13.80;99.70;;;;;;4968559;28;20148;-82
2022/11/07 09:30:57;;;;;;;9.82;2.28;;;13.90;99.70;;;;;;4951826;28;20118;-82
2022/11/07 09:33:24;;;;;;;11.02;1.73;;;13.90;99.60;;;;;;4971763;28;20497;-83
2022/11/07 09:35:50;;;;;;;11.75;1.70;;;14.00;99.70;;;;;;4968156;28;20476;-82
2022/11/07 09:38:16;;;;;;;11.80;1.40;;;14.10;99.80;;;;;;4983283;28;20027;-83
2022/11/07 09:40:58;;;;;;;8.90;1.38;;;14.10;98.90;;;;;;4943513;28;20431;-82
2022/11/07 09:43:54;;;;;;;7.50;1.33;;;14.20;98.90;;;;;;4959299;28;20023;-80
2022/11/07 09:46:51;;;;;;;12.35;1.83;;;14.20;98.60;;;;;;4959037;28;20062;-80
2022/11/07 09:49:36;;;;;;;11.63;1.85;;;14.20;98.60;;;;;;4958621;28;20039;-81
2022/11/07 09:52:39;;;;;;;15.48;1.70;;;14.20;98.60;;;;;;4957873;28;20057;-80
2022/11/07 09:55:23;;;;;;;7.47;1.55;;;14.30;98.70;;;;;;4959046;28;20502;-81
2022/11/07 09:57:54;;;;;;;8.30;1.95;;;14.30;98.60;;;;;;4976121;28;20431;-82
2022/11/07 10:00:21;;;;;;;10.57;1.45;;;14.40;98.50;;;;;;4976390;28;20023;-81
2022/11/07 10:02:51;;;;;;;10.90;2.15;;;14.40;98.00;;;;;;4942603;28;20081;-82
2022/11/07 10:05:43;;;;;;;12.23;1.88;;;14.40;98.10;;;;;;4958823;28;20026;-82
2022/11/07 10:08:34;;;;;;;12.25;2.17;;;14.40;98.10;;;;;;4957892;28;20097;-89
2022/11/07 10:11:07;;;;;;;15.30;1.40;;;14.40;97.90;;;;;;4959253;28;20066;-80
2022/11/07 10:14:08;;;;;;;11.48;1.70;;;14.40;97.60;;;;;;4958581;28;20023;-81
2022/11/07 10:17:02;;;;;;;9.88;1.60;;;14.40;97.70;;;;;;4958580;28;20039;-83
2022/11/07 10:19:39;;;;;;;16.80;1.85;;;14.30;97.50;;;;;;4967554;28;20492;-81
2022/11/07 10:22:39;;;;;;;10.10;1.75;;;14.30;97.70;;;;;;4977659;28;20505;-81
2022/11/07 10:25:34;;;;;;;14.20;2.17;;;14.30;98.00;;;;;;4971724;28;20033;-80
2022/11/07 10:28:10;;;;;;;10.55;2.00;;;14.30;98.20;;;;;;4993523;28;20109;-83
2022/11/07 10:30:37;;;;;;;13.52;1.67;;;14.30;98.20;;;;;;4977735;28;20054;-83
2022/11/07 10:33:06;;;;;;;8.35;1.70;;;14.30;98.40;;;;;;4994528;28;20077;-83
2022/11/07 10:35:40;;;;;;;13.57;1.60;;;14.30;98.30;;;;;;4995348;28;20038;-84
2022/11/07 10:38:25;;;;;;;;;;;14.40;98.40;;;;;;4995780;28;20065;-85
2022/11/07 10:40:52;;;;;;;14.98;2.30;;;14.40;98.00;;;;;;4988429;28;19920;-82
2022/11/07 10:43:38;;;;;;;10.57;2.22;;;14.40;98.10;;;;;;4965922;28;20078;-81
2022/11/07 10:46:12;;;;;;;9.85;1.35;;;14.50;98.10;;;;;;4990346;28;20073;-81
2022/11/07 10:48:52;;;;;;;13.38;2.10;;;14.50;97.80;;;;;;4975646;28;20042;-82
2022/11/07 10:51:18;;;;;;;15.57;2.38;;;14.50;97.80;;;;;;4958013;28;20450;-81
2022/11/07 10:53:44;;;;;;;9.93;1.65;;;14.50;97.70;;;;;;4958381;28;20051;-81
2022/11/07 10:56:12;;;;;;;7.75;1.15;;;14.50;97.70;;;;;;4962452;28;20018;-81
2022/11/07 10:58:44;;;;;;;10.80;1.42;;;14.50;97.70;;;;;;4972013;28;20042;-81
2022/11/07 11:01:10;;;;;;;17.35;2.28;;;14.60;97.40;;;;;;4986029;28;20027;-81
2022/11/07 11:03:44;;;;;;;14.07;2.38;;;14.60;97.10;;;;;;4992755;28;20066;-81
2022/11/07 11:06:17;;;;;;;13.48;1.83;;;14.60;97.20;;;;;;4976624;28;20035;-82
2022/11/07 11:08:49;;;;;;;12.73;2.38;;;14.70;97.30;;;;;;4993953;28;20109;-81
2022/11/07 11:11:27;;;;;;;12.73;2.22;;;14.80;97.10;;;;;;4982931;28;20497;-82
2022/11/07 11:14:13;;;;;;;9.75;2.17;;;14.80;96.80;;;;;;4979799;28;20391;-81
2022/11/07 11:16:42;;;;;;;14.32;2.22;;;14.90;96.80;;;;;;4958225;28;20387;-82
2022/11/07 11:19:31;;;;;;;11.38;2.03;;;15.00;96.60;;;;;;4957083;28;20049;-81
2022/11/07 11:21:58;;;;;;;14.85;1.85;;;15.00;96.00;;;;;;4974733;28;20187;-81
2022/11/07 11:24:36;;;;;;;12.32;1.85;;;15.10;96.00;;;;;;4957891;28;20045;-79
2022/11/07 11:27:21;;;;;;;8.55;1.40;;;15.10;95.80;;;;;;4957282;28;20402;-80
2022/11/07 11:30:13;;;;;;;15.40;2.83;;;15.10;95.80;;;;;;4975102;28;20121;-80
2022/11/07 11:33:02;;;;;;;14.48;1.70;;;15.10;95.70;;;;;;4956936;28;20039;-81
2022/11/07 11:35:30;;;;;;;13.50;2.00;;;15.10;95.50;;;;;;4949252;28;20041;-81
2022/11/07 12:22:39;;;;;;;10.25;2.13;;;15.20;94.10;;;;;;5044314;27;1972303;-79
2022/11/07 12:25:33;;;;;;;8.00;1.30;;;15.20;94.40;;;;;;5068219;28;20040;-79
2022/11/07 12:28:44;;;;;;;14.10;1.92;;;15.20;94.70;;;;;;5072774;28;20438;-78
2022/11/07 12:31:19;;;;;;;12.80;1.83;;;15.30;95.00;;;;;;5090690;28;20361;-78
2022/11/07 12:34:04;;;;;;;12.35;1.63;;;15.30;95.00;;;;;;5091013;28;20038;-78
2022/11/07 12:37:00;;;;;;;12.43;1.73;;;15.30;95.10;;;;;;5073280;28;20055;-78
2022/11/07 12:39:50;;;;;;;15.57;2.05;;;15.30;95.10;;;;;;5039535;28;21642;-78
2022/11/07 12:42:48;;;;;;;11.90;2.08;;;15.40;94.80;;;;;;5072274;28;20452;-78
2022/11/07 12:45:34;;;;;;;14.15;2.13;;;15.30;94.40;;;;;;5090251;28;20024;-79
2022/11/07 12:48:35;;;;;;;12.85;2.03;;;15.40;94.50;;;;;;5066665;28;20048;-78
2022/11/07 12:51:24;;;;;;;9.57;1.27;;;15.40;94.40;;;;;;5039264;28;20036;-80
2022/11/07 12:54:13;;;;;;;9.55;1.80;;;15.50;94.40;;;;;;5069646;28;21686;-78
2022/11/07 12:56:40;;;;;;;12.32;2.00;;;15.50;94.20;;;;;;5063995;28;20085;-79
2022/11/07 12:59:13;;;;;;;15.07;1.83;;;15.60;94.00;;;;;;5072184;28;20032;-79
2022/11/07 13:01:51;;;;;;;13.65;1.58;;;15.60;93.80;;;;;;5071880;28;20422;-78
2022/11/07 13:04:33;;;;;;;13.98;1.58;;;15.70;93.50;;;;;;5071968;28;20016;-79
2022/11/07 13:07:16;;;;;;;13.85;2.00;;;15.80;93.20;;;;;;5071881;28;20472;-78
2022/11/07 13:09:56;;;;;;;8.00;1.67;;;15.80;93.10;;;;;;5088923;28;20130;-78
2022/11/07 13:12:27;;;;;;;12.40;1.33;;;15.90;92.80;;;;;;5090140;28;20031;-79
2022/11/07 13:14:53;;;;;;;9.88;1.05;;;15.90;92.70;;;;;;5048764;28;20021;-79
2022/11/07 13:17:23;;;;;;;9.45;1.77;;;16.00;92.80;;;;;;5031995;28;20056;-78
2022/11/07 13:20:00;;;;;;;12.35;1.77;;;16.00;92.40;;;;;;5073646;28;20032;-79
2022/11/07 13:22:39;;;;;;;12.27;1.65;;;16.00;91.90;;;;;;5053824;28;20048;-78
2022/11/07 13:25:07;;;;;;;12.35;1.77;;;16.00;92.20;;;;;;5061147;28;20066;-79
2022/11/07 13:27:38;;;;;;;10.13;1.65;;;16.00;91.90;;;;;;5068222;28;20021;-79
2022/11/07 13:30:13;;;;;;;9.88;1.70;;;16.00;91.90;;;;;;5089578;28;20128;-79
2022/11/07 13:32:47;;;;;;;14.82;1.98;;;16.00;91.80;;;;;;5065355;28;20029;-79
2022/11/07 13:35:22;;;;;;;;;;;16.00;91.50;;;;;;5058924;28;20020;-78
2022/11/07 13:38:07;;;;;;;;;;;15.90;91.50;;;;;;5076525;28;19980;-79
2022/11/07 13:40:45;;;;;;;12.38;1.63;;;15.90;91.40;;;;;;5064899;28;19908;-78
2022/11/07 13:43:43;;;;;;;10.05;1.50;;;15.80;91.50;;;;;;5075699;28;20551;-79
2022/11/07 13:46:16;;;;;;;12.63;1.98;;;15.70;91.50;;;;;;4989810;28;20393;-79
2022/11/07 13:48:42;;;;;;;11.32;1.65;;;15.70;91.70;;;;;;5047967;28;20014;-79
2022/11/07 13:51:10;;;;;;;10.43;1.67;;;15.70;91.70;;;;;;5018339;28;20041;-79
2022/11/07 13:53:44;;;;;;;11.30;1.40;;;15.60;91.70;;;;;;5018900;28;20095;-78